Koningsborg — PDHI — position and weather

sailwx.info

Track history (hours):
 
Tides and Currents Weather Stations Pressure Air Temp Water Temp Dewpoint Dewpoint Depression Visibility Wind Speed Wind Dir Waves Ship Positions

Koningsborg

Last reported at 2017-Nov-20 00:29 UTC. Time now 2017-Nov-21 00:58 UTC.
Position N 52°25' E 004°49'.

Length 130 m; draft 4.8 m.

Type: Cargo ship. MMSI: 246388000.

Date/timePositionNaut miles runAvg speedWind from/ knotsBaromVisibWave heightAir tempDewpointWater temp
2017-Nov-20 00:29N 52°25' E 004°49'0 0.0
2017-Nov-19 23:53N 52°25' E 004°49'0 0.0
2017-Nov-19 23:29N 52°25' E 004°49'0 0.0
2017-Nov-19 22:56N 52°25' E 004°49'0 0.0
2017-Nov-19 22:26N 52°25' E 004°49'0 0.0
2017-Nov-19 21:59N 52°25' E 004°49'0 0.0
2017-Nov-19 21:29N 52°25' E 004°49'0 0.0
2017-Nov-19 20:59N 52°25' E 004°49'0 0.0
2017-Nov-19 20:29N 52°25' E 004°49'0 0.0
2017-Nov-19 19:59N 52°25' E 004°49'0 0.0
2017-Nov-19 19:29N 52°25' E 004°49'0 0.0
2017-Nov-19 18:59N 52°25' E 004°49'0 0.0
2017-Nov-19 18:29N 52°25' E 004°49'0 0.0
2017-Nov-19 17:59N 52°25' E 004°49'0 0.0
2017-Nov-19 17:29N 52°25' E 004°49'0 0.0
2017-Nov-19 16:59N 52°25' E 004°49'0 0.0
2017-Nov-19 16:29N 52°25' E 004°49'0 0.0
2017-Nov-19 15:59N 52°25' E 004°49'0 0.0
2017-Nov-19 15:29N 52°25' E 004°49'0 0.0
2017-Nov-19 14:59N 52°25' E 004°49'0 0.0
2017-Nov-19 14:29N 52°25' E 004°49'0 0.0
2017-Nov-19 13:59N 52°25' E 004°49'0 0.0
2017-Nov-19 13:29N 52°25' E 004°49'0 0.0
2017-Nov-19 12:59N 52°25' E 004°49'0 0.0
2017-Nov-19 12:26N 52°25' E 004°49'0 0.0
2017-Nov-19 11:59N 52°25' E 004°49'0 0.1
2017-Nov-19 11:00N 52°25' E 004°49'3 5.1
2017-Nov-19 10:31N 52°26' E 004°45'5 9.4
2017-Nov-19 10:00N 52°28' E 004°38'1 2.2
2017-Nov-19 09:30N 52°28' E 004°37'1 1.0
2017-Nov-19 09:00N 52°28' E 004°36'4 7.8
2017-Nov-19 08:31N 52°29' E 004°30'5 9.1
2017-Nov-19 08:00N 52°29' E 004°22'2 4.5
2017-Nov-19 07:30N 52°30' E 004°20'0 0.3
2017-Nov-19 07:00N 52°31' E 004°20'0 0.4
2017-Nov-19 06:30N 52°31' E 004°21'0 0.1
2017-Nov-19 05:58N 52°31' E 004°21'0 0.0
2017-Nov-19 05:28N 52°31' E 004°21'0 0.0
2017-Nov-19 04:55N 52°31' E 004°21'0 0.1
2017-Nov-19 04:28N 52°31' E 004°21'0 0.0
2017-Nov-19 03:58N 52°31' E 004°21'0 0.0
2017-Nov-19 03:28N 52°31' E 004°21'0 0.0
2017-Nov-19 02:55N 52°31' E 004°21'0 0.0
2017-Nov-19 02:25N 52°31' E 004°21'0 0.0
2017-Nov-19 01:55N 52°31' E 004°21'0 0.0
2017-Nov-19 01:19N 52°31' E 004°21'0 0.1
2017-Nov-19 00:58N 52°31' E 004°21'0 0.0
2017-Nov-19 00:25N 52°31' E 004°21'0 0.1
2017-Nov-18 23:58N 52°31' E 004°21'0 0.0
2017-Nov-18 23:28N 52°31' E 004°21'0 0.1
2017-Nov-18 22:58N 52°31' E 004°20'0 0.0
2017-Nov-18 22:28N 52°31' E 004°20'0 0.0
2017-Nov-18 21:58N 52°31' E 004°21'0 0.0
2017-Nov-18 21:28N 52°31' E 004°20'0 0.1
2017-Nov-18 20:52N 52°31' E 004°21'0 0.0
2017-Nov-18 20:28N 52°31' E 004°21'0 0.0
2017-Nov-18 19:55N 52°31' E 004°21'0 0.1
2017-Nov-18 19:28N 52°31' E 004°21'0 0.1
2017-Nov-18 18:58N 52°31' E 004°21'0 0.0
2017-Nov-18 18:22N 52°31' E 004°21'0 0.0
2017-Nov-18 17:58N 52°31' E 004°21'0 0.0
2017-Nov-18 17:25N 52°31' E 004°21'0 0.1
2017-Nov-18 16:58N 52°31' E 004°21'0 0.0
2017-Nov-18 16:25N 52°31' E 004°21'0 0.1
2017-Nov-18 15:58N 52°31' E 004°21'0 0.0
2017-Nov-18 15:28N 52°31' E 004°21'0 0.0
2017-Nov-18 14:59N 52°31' E 004°21'0 0.0
2017-Nov-18 14:30N 52°31' E 004°21'0 0.1
2017-Nov-18 13:57N 52°31' E 004°21'0 0.0
2017-Nov-18 13:30N 52°31' E 004°21'0 0.0
2017-Nov-18 12:56N 52°31' E 004°21'0 0.0
2017-Nov-18 12:22N 52°31' E 004°21'0 0.0
2017-Nov-18 11:58N 52°31' E 004°21'0 0.0
2017-Nov-18 11:25N 52°31' E 004°21'0 0.1
2017-Nov-18 10:55N 52°31' E 004°20'0 0.0
2017-Nov-18 10:25N 52°31' E 004°20'0 0.3
2017-Nov-18 09:59N 52°31' E 004°20'1 1.3
2017-Nov-18 09:24N 52°31' E 004°21'0 0.1
2017-Nov-18 09:00N 52°31' E 004°21'0 0.0
2017-Nov-18 08:30N 52°31' E 004°21'0 0.0
2017-Nov-18 07:54N 52°31' E 004°21'0 0.0
2017-Nov-18 07:30N 52°31' E 004°21'0 0.0
2017-Nov-18 06:57N 52°31' E 004°21'0 0.0
2017-Nov-18 06:27N 52°31' E 004°21'0 0.1
2017-Nov-18 05:57N 52°31' E 004°21'0 0.0
2017-Nov-18 05:30N 52°31' E 004°21'0 0.0
2017-Nov-18 05:00N 52°31' E 004°21'0 0.0
2017-Nov-18 04:30N 52°31' E 004°21'0 0.0
2017-Nov-18 04:00N 52°31' E 004°21'0 0.0
2017-Nov-18 03:30N 52°31' E 004°21'0 0.0
2017-Nov-18 03:00N 52°31' E 004°21'0 0.0
2017-Nov-18 02:30N 52°31' E 004°21'0 0.0
2017-Nov-18 02:00N 52°31' E 004°21'0 0.1
2017-Nov-18 01:30N 52°31' E 004°21'0 0.1
2017-Nov-18 00:57N 52°31' E 004°21'0 0.0
2017-Nov-18 00:30N 52°31' E 004°21'0 0.0
2017-Nov-18 00:00N 52°31' E 004°21'0 0.0
2017-Nov-17 23:30N 52°31' E 004°21'0 0.0
2017-Nov-17 22:57N 52°31' E 004°21'0 0.0
2017-Nov-17 22:30N 52°31' E 004°21'0 0.0
2017-Nov-17 22:00N 52°31' E 004°21'0 0.0
2017-Nov-17 21:30N 52°31' E 004°21'0 0.0
2017-Nov-17 21:00N 52°31' E 004°21'0 0.0
2017-Nov-17 20:30N 52°31' E 004°21'0 0.0
2017-Nov-17 20:00N 52°31' E 004°21'0 0.0
2017-Nov-17 19:30N 52°31' E 004°21'0 0.0
2017-Nov-17 19:00N 52°31' E 004°21'0 0.0
2017-Nov-17 18:30N 52°31' E 004°21'0 0.0
2017-Nov-17 17:54N 52°31' E 004°21'0 0.0
2017-Nov-17 17:30N 52°31' E 004°21'0 0.0
2017-Nov-17 17:00N 52°31' E 004°21'0 0.1
2017-Nov-17 16:30N 52°31' E 004°21'0 0.0
2017-Nov-17 16:00N 52°31' E 004°21'0 0.0
2017-Nov-17 15:30N 52°31' E 004°21'0 0.0
2017-Nov-17 15:00N 52°31' E 004°21'0 0.0
2017-Nov-17 14:30N 52°31' E 004°21'0 0.0
2017-Nov-17 14:00N 52°31' E 004°21'0 0.1
2017-Nov-17 13:27N 52°31' E 004°21'0 0.1
2017-Nov-17 13:00N 52°31' E 004°21'0 0.0
2017-Nov-17 12:30N 52°31' E 004°21'0 0.0
2017-Nov-17 12:00N 52°31' E 004°21'0 0.1
2017-Nov-17 11:30N 52°31' E 004°21'2 3.9
2017-Nov-17 11:00N 52°29' E 004°23'510.9
2017-Nov-17 10:30N 52°28' E 004°32'3 4.3
2017-Nov-17 09:55N 52°28' E 004°36'0 0.1
2017-Nov-17 09:28N 52°28' E 004°36'0 0.0
2017-Nov-17 08:58N 52°28' E 004°36'0 0.0
2017-Nov-17 08:28N 52°28' E 004°36'0 0.0
2017-Nov-17 07:58N 52°28' E 004°36'0 0.0
2017-Nov-17 07:28N 52°28' E 004°36'0 0.0
2017-Nov-17 06:58N 52°28' E 004°36'0 0.0
2017-Nov-17 06:28N 52°28' E 004°36'0 0.0
2017-Nov-17 05:58N 52°28' E 004°36'0 0.0
2017-Nov-17 05:28N 52°28' E 004°36'0 0.0
2017-Nov-17 04:58N 52°28' E 004°36'0 0.0
2017-Nov-17 04:25N 52°28' E 004°36'0 0.0
2017-Nov-17 03:58N 52°28' E 004°36'0 0.0
2017-Nov-17 03:28N 52°28' E 004°36'0 0.0
2017-Nov-17 02:58N 52°28' E 004°36'0 0.0
2017-Nov-17 02:25N 52°28' E 004°36'0 0.0
2017-Nov-17 01:58N 52°28' E 004°36'0 0.0
2017-Nov-17 01:28N 52°28' E 004°36'0 0.0
2017-Nov-17 00:58N 52°28' E 004°36'0 0.0
2017-Nov-17 00:28N 52°28' E 004°36'0 0.0
2017-Nov-16 23:58N 52°28' E 004°36'0 0.0
2017-Nov-16 23:28N 52°28' E 004°36'0 0.0
2017-Nov-16 22:58N 52°28' E 004°36'0 0.0
2017-Nov-16 22:28N 52°28' E 004°36'0 0.0
2017-Nov-16 21:55N 52°28' E 004°36'0 0.0
2017-Nov-16 21:28N 52°28' E 004°36'0 0.0
2017-Nov-16 20:58N 52°28' E 004°36'0 0.0
2017-Nov-16 20:28N 52°28' E 004°36'0 0.0
2017-Nov-16 19:55N 52°28' E 004°36'0 0.0
2017-Nov-16 19:28N 52°28' E 004°36'0 0.0
2017-Nov-16 18:58N 52°28' E 004°36'0 0.0
2017-Nov-16 18:25N 52°28' E 004°36'0 0.0
2017-Nov-16 17:58N 52°28' E 004°36'0 0.0
2017-Nov-16 17:28N 52°28' E 004°36'0 0.0
2017-Nov-16 16:58N 52°28' E 004°36'0 0.0
2017-Nov-16 16:28N 52°28' E 004°36'0 0.0
2017-Nov-16 15:58N 52°28' E 004°36'0 0.0
2017-Nov-16 15:28N 52°28' E 004°36'0 0.0
2017-Nov-16 14:55N 52°28' E 004°36'0 0.0
2017-Nov-16 14:28N 52°28' E 004°36'0 0.0
2017-Nov-16 13:58N 52°28' E 004°36'0 0.0
2017-Nov-16 13:28N 52°28' E 004°36'0 0.0
2017-Nov-16 12:58N 52°28' E 004°36'0 0.0
2017-Nov-16 12:28N 52°28' E 004°36'0 0.0
2017-Nov-16 11:58N 52°28' E 004°36'0 0.0
2017-Nov-16 11:25N 52°28' E 004°36'0 0.0
2017-Nov-16 10:58N 52°28' E 004°36'0 0.0
2017-Nov-16 10:28N 52°28' E 004°36'0 0.0
2017-Nov-16 09:58N 52°28' E 004°36'0 0.0
2017-Nov-16 09:28N 52°28' E 004°36'0 0.0
2017-Nov-16 08:52N 52°28' E 004°36'0 0.0
2017-Nov-16 08:28N 52°28' E 004°36'0 0.0
2017-Nov-16 07:58N 52°28' E 004°36'0 0.0
2017-Nov-16 07:28N 52°28' E 004°36'0 0.0
2017-Nov-16 06:55N 52°28' E 004°36'0 0.0
2017-Nov-16 06:28N 52°28' E 004°36'0 0.0
2017-Nov-16 05:58N 52°28' E 004°36'0 0.0
2017-Nov-16 05:28N 52°28' E 004°36'0 0.0
2017-Nov-16 04:58N 52°28' E 004°36'0 0.0
2017-Nov-16 04:25N 52°28' E 004°36'0 0.0
2017-Nov-16 03:58N 52°28' E 004°36'0 0.0
2017-Nov-16 03:28N 52°28' E 004°36'2 2.1
2017-Nov-16 02:31N 52°28' E 004°33'510.5
2017-Nov-16 02:00N 52°28' E 004°24'5 9.1
2017-Nov-16 01:30N 52°28' E 004°17'4 8.9
2017-Nov-16 01:00N 52°28' E 004°10'0 0.9
2017-Nov-16 00:30N 52°28' E 004°09'0 0.1
2017-Nov-16 00:00N 52°28' E 004°09'0 0.0
2017-Nov-15 23:30N 52°28' E 004°09'0 0.0
2017-Nov-15 23:00N 52°28' E 004°09'0 0.0
2017-Nov-15 22:30N 52°28' E 004°09'0 0.2
2017-Nov-15 22:00N 52°28' E 004°09'0 0.1
2017-Nov-15 21:30N 52°28' E 004°09'0 0.1
2017-Nov-15 21:00N 52°28' E 004°09'0 0.0
2017-Nov-15 20:30N 52°28' E 004°09'0 0.0
2017-Nov-15 20:00N 52°28' E 004°09'0 0.0
2017-Nov-15 19:30N 52°28' E 004°09'0 0.0
2017-Nov-15 19:00N 52°28' E 004°09'0 0.0
2017-Nov-15 18:30N 52°28' E 004°09'0 0.0
2017-Nov-15 18:00N 52°28' E 004°09'0 0.0
2017-Nov-15 17:30N 52°28' E 004°09'0 0.2
2017-Nov-15 17:00N 52°28' E 004°09'0 0.1
2017-Nov-15 16:30N 52°28' E 004°09'0 0.1
2017-Nov-15 16:00N 52°28' E 004°09'0 0.0
2017-Nov-15 15:30N 52°28' E 004°09'0 0.0
2017-Nov-15 15:00N 52°28' E 004°09'0 0.0
2017-Nov-15 14:30N 52°28' E 004°09'0 0.0
2017-Nov-15 14:00N 52°28' E 004°09'0 0.0
2017-Nov-15 13:30N 52°28' E 004°09'0 0.0
2017-Nov-15 13:00N 52°28' E 004°09'0 0.0
2017-Nov-15 12:30N 52°28' E 004°09'0 0.0
2017-Nov-15 12:00N 52°28' E 004°09'0 0.0
2017-Nov-15 11:30N 52°28' E 004°09'0 0.0
2017-Nov-15 11:00N 52°28' E 004°09'0 0.0
2017-Nov-15 10:30N 52°28' E 004°09'0 0.2
2017-Nov-15 10:00N 52°28' E 004°09'0 0.1
2017-Nov-15 09:30N 52°28' E 004°09'0 0.0
2017-Nov-15 09:00N 52°28' E 004°09'0 0.0
2017-Nov-15 08:30N 52°28' E 004°09'0 0.8
2017-Nov-15 08:00N 52°28' E 004°09'4 7.2
2017-Nov-15 07:30N 52°28' E 004°03'4 7.1
2017-Nov-15 07:00N 52°27' E 003°57'3 6.3
2017-Nov-15 06:29N 52°26' E 003°52'3 6.9
2017-Nov-15 06:00N 52°25' E 003°47'63 8.2
2017-Nov-14 22:24N 51°42' E 002°33'14 9.2
2017-Nov-14 20:49N 51°31' E 002°18'4 9.0
2017-Nov-14 20:25N 51°28' E 002°14'410.0
2017-Nov-14 20:00N 51°25' E 002°10'510.6
2017-Nov-14 19:30N 51°20' E 002°08'510.2
2017-Nov-14 19:00N 51°15' E 002°05'510.2
2017-Nov-14 18:31N 51°12' E 001°59'510.1
2017-Nov-14 18:01N 51°09' E 001°52'5 9.6
2017-Nov-14 17:30N 51°06' E 001°46'5 9.2
2017-Nov-14 17:00N 51°03' E 001°41'5 9.0
2017-Nov-14 16:30N 50°60' E 001°36'5 9.1
2017-Nov-14 16:00N 50°56' E 001°31'63 9.7
2017-Nov-14 09:32N 50°21' E 000°09'010.9
2017-Nov-14 09:29N 50°21' E 000°08'1610.7
2017-Nov-14 08:02N 50°17' W 000°15'010.8
2017-Nov-14 08:00N 50°17' W 000°16'3412.0
2017-Nov-14 05:11N 50°07' W 001°06'313.1
2017-Nov-14 04:59N 50°07' W 001°10'612.9
2017-Nov-14 04:30N 50°05' W 001°20'713.0
2017-Nov-14 04:00N 50°03' W 001°29'612.8
2017-Nov-14 03:31N 50°01' W 001°39'612.5
2017-Nov-14 03:00N 49°60' W 001°49'360 7.0
2017-Nov-11 23:48N 44°06' W 003°27'3 8.9
2017-Nov-11 23:26N 44°03' W 003°26'4 9.2
2017-Nov-11 23:00N 43°59' W 003°24'4 9.0
2017-Nov-11 22:30N 43°55' W 003°21'5 9.0
2017-Nov-11 22:00N 43°51' W 003°19'5 9.2
2017-Nov-11 21:30N 43°47' W 003°17'5 9.2
2017-Nov-11 21:00N 43°42' W 003°15'4 9.0
2017-Nov-11 20:30N 43°38' W 003°13'5 9.0
2017-Nov-11 20:00N 43°34' W 003°10'5 9.1
2017-Nov-11 19:30N 43°30' W 003°08'5 9.4
2017-Nov-11 19:00N 43°25' W 003°06'4 8.7
2017-Nov-11 18:31N 43°22' W 003°03'1 1.5
2017-Nov-11 18:00N 43°22' W 003°04'0 0.0
2017-Nov-11 17:30N 43°22' W 003°04'0 0.0
2017-Nov-11 17:00N 43°22' W 003°04'0 0.0
2017-Nov-11 16:30N 43°22' W 003°04'0 0.0
2017-Nov-11 16:00N 43°22' W 003°04'0 0.0
2017-Nov-11 15:30N 43°22' W 003°04'0 0.0
2017-Nov-11 15:00N 43°22' W 003°04'0 0.0
2017-Nov-11 14:30N 43°22' W 003°04'0 0.0
2017-Nov-11 14:00N 43°22' W 003°04'0 0.0
2017-Nov-11 13:30N 43°22' W 003°04'0 0.0
2017-Nov-11 13:00N 43°22' W 003°04'0 0.0
2017-Nov-11 12:30N 43°22' W 003°04'0 0.0
2017-Nov-11 12:00N 43°22' W 003°04'0 0.0
2017-Nov-11 11:30N 43°22' W 003°04'0 0.0
2017-Nov-11 11:00N 43°22' W 003°04'0 0.0
2017-Nov-11 10:30N 43°22' W 003°04'0 0.0
2017-Nov-11 10:00N 43°22' W 003°04'0 0.0
2017-Nov-11 09:30N 43°22' W 003°04'0 0.0
2017-Nov-11 09:00N 43°22' W 003°04'0 0.0
2017-Nov-11 08:30N 43°22' W 003°04'0 0.0
2017-Nov-11 08:00N 43°22' W 003°04'0 0.0
2017-Nov-11 07:30N 43°22' W 003°04'0 0.0
2017-Nov-11 06:59N 43°22' W 003°04'0 0.0
2017-Nov-11 06:29N 43°22' W 003°04'0 0.0
2017-Nov-11 06:00N 43°22' W 003°04'0 0.0
2017-Nov-11 05:30N 43°22' W 003°04'0 0.0
2017-Nov-11 04:59N 43°22' W 003°04'0 0.0
2017-Nov-11 04:29N 43°22' W 003°04'0 0.0
2017-Nov-11 04:00N 43°22' W 003°04'0 0.0
2017-Nov-11 03:30N 43°22' W 003°04'0 0.0
2017-Nov-11 02:59N 43°22' W 003°04'0 0.0
2017-Nov-11 02:29N 43°22' W 003°04'0 0.0
2017-Nov-11 01:59N 43°22' W 003°04'0 0.0
2017-Nov-11 01:30N 43°22' W 003°04'0 0.0
2017-Nov-11 00:59N 43°22' W 003°04'0 0.0
2017-Nov-11 00:29N 43°22' W 003°04'0 0.0
2017-Nov-11 00:00N 43°22' W 003°04'1 1.5
2017-Nov-10 23:31N 43°21' W 003°03'4 7.3
2017-Nov-10 23:01N 43°24' W 003°06'1 2.2
2017-Nov-10 22:30N 43°24' W 003°07'1 1.3
2017-Nov-10 21:58N 43°23' W 003°07'0 0.1
2017-Nov-10 21:28N 43°23' W 003°07'0 0.1
2017-Nov-10 20:58N 43°23' W 003°07'0 0.1
2017-Nov-10 20:28N 43°23' W 003°07'0 0.1
2017-Nov-10 19:58N 43°23' W 003°07'0 0.1
2017-Nov-10 19:28N 43°23' W 003°07'0 0.1
2017-Nov-10 18:58N 43°23' W 003°07'0 0.1
2017-Nov-10 18:28N 43°23' W 003°07'0 0.0
2017-Nov-10 17:58N 43°23' W 003°07'0 0.0
2017-Nov-10 17:31N 43°23' W 003°07'0 0.1
2017-Nov-10 16:58N 43°23' W 003°07'0 0.0
2017-Nov-10 16:28N 43°23' W 003°07'0 0.0
2017-Nov-10 15:58N 43°23' W 003°07'0 0.1
2017-Nov-10 15:28N 43°23' W 003°07'0 0.1
2017-Nov-10 14:58N 43°23' W 003°07'0 0.1
2017-Nov-10 14:28N 43°23' W 003°07'0 0.0
2017-Nov-10 14:00N 43°23' W 003°07'0 0.1
2017-Nov-10 13:31N 43°23' W 003°07'0 0.0
2017-Nov-10 12:58N 43°23' W 003°07'0 0.0
2017-Nov-10 12:27N 43°23' W 003°07'0 0.1
2017-Nov-10 11:58N 43°23' W 003°07'0 0.1
2017-Nov-10 11:28N 43°23' W 003°07'0 0.1
2017-Nov-10 11:01N 43°23' W 003°07'0 0.1
2017-Nov-10 10:25N 43°23' W 003°07'0 0.0
2017-Nov-10 09:58N 43°23' W 003°07'0 0.0
2017-Nov-10 09:28N 43°23' W 003°07'0 0.0
2017-Nov-10 08:58N 43°23' W 003°07'0 0.0
2017-Nov-10 08:28N 43°23' W 003°07'0 0.1
2017-Nov-10 08:01N 43°23' W 003°07'0 0.0
2017-Nov-10 07:27N 43°23' W 003°07'0 0.0
2017-Nov-10 07:00N 43°23' W 003°07'0 0.0
2017-Nov-10 06:30N 43°23' W 003°07'0 0.0
2017-Nov-10 06:01N 43°23' W 003°07'0 0.0
2017-Nov-10 05:31N 43°23' W 003°07'0 0.1
2017-Nov-10 05:01N 43°23' W 003°07'0 0.0
2017-Nov-10 04:30N 43°23' W 003°07'0 0.0
2017-Nov-10 03:58N 43°23' W 003°07'0 0.1
2017-Nov-10 03:30N 43°23' W 003°07'0 0.0
2017-Nov-10 02:57N 43°23' W 003°07'0 0.1
2017-Nov-10 02:28N 43°23' W 003°07'0 0.1
2017-Nov-10 02:00N 43°23' W 003°07'0 0.0
2017-Nov-10 01:31N 43°23' W 003°07'0 0.0
2017-Nov-10 01:00N 43°23' W 003°07'0 0.1
2017-Nov-10 00:30N 43°23' W 003°07'  
Track history (hours):
 
Tides and Currents Weather Stations Pressure Air Temp Water Temp Dewpoint Dewpoint Depression Visibility Wind Speed Wind Dir Waves Ship Positions

Koningsborg

Last reported at 2017-Nov-20 00:29 UTC. Time now 2017-Nov-21 00:58 UTC.
Position N 52°25' E 004°49'.

Length 130 m; draft 4.8 m.

Type: Cargo ship. MMSI: 246388000.

Date/timePositionNaut miles runAvg speedWind from/ knotsBaromVisibWave heightAir tempDewpointWater temp
2017-Nov-20 00:29N 52°25' E 004°49'0 0.0
2017-Nov-19 23:53N 52°25' E 004°49'0 0.0
2017-Nov-19 23:29N 52°25' E 004°49'0 0.0
2017-Nov-19 22:56N 52°25' E 004°49'0 0.0
2017-Nov-19 22:26N 52°25' E 004°49'0 0.0
2017-Nov-19 21:59N 52°25' E 004°49'0 0.0
2017-Nov-19 21:29N 52°25' E 004°49'0 0.0
2017-Nov-19 20:59N 52°25' E 004°49'0 0.0
2017-Nov-19 20:29N 52°25' E 004°49'0 0.0
2017-Nov-19 19:59N 52°25' E 004°49'0 0.0
2017-Nov-19 19:29N 52°25' E 004°49'0 0.0
2017-Nov-19 18:59N 52°25' E 004°49'0 0.0
2017-Nov-19 18:29N 52°25' E 004°49'0 0.0
2017-Nov-19 17:59N 52°25' E 004°49'0 0.0
2017-Nov-19 17:29N 52°25' E 004°49'0 0.0
2017-Nov-19 16:59N 52°25' E 004°49'0 0.0
2017-Nov-19 16:29N 52°25' E 004°49'0 0.0
2017-Nov-19 15:59N 52°25' E 004°49'0 0.0
2017-Nov-19 15:29N 52°25' E 004°49'0 0.0
2017-Nov-19 14:59N 52°25' E 004°49'0 0.0
2017-Nov-19 14:29N 52°25' E 004°49'0 0.0
2017-Nov-19 13:59N 52°25' E 004°49'0 0.0
2017-Nov-19 13:29N 52°25' E 004°49'0 0.0
2017-Nov-19 12:59N 52°25' E 004°49'0 0.0
2017-Nov-19 12:26N 52°25' E 004°49'0 0.0
2017-Nov-19 11:59N 52°25' E 004°49'0 0.1
2017-Nov-19 11:00N 52°25' E 004°49'3 5.1
2017-Nov-19 10:31N 52°26' E 004°45'5 9.4
2017-Nov-19 10:00N 52°28' E 004°38'1 2.2
2017-Nov-19 09:30N 52°28' E 004°37'1 1.0
2017-Nov-19 09:00N 52°28' E 004°36'4 7.8
2017-Nov-19 08:31N 52°29' E 004°30'5 9.1
2017-Nov-19 08:00N 52°29' E 004°22'2 4.5
2017-Nov-19 07:30N 52°30' E 004°20'0 0.3
2017-Nov-19 07:00N 52°31' E 004°20'0 0.4
2017-Nov-19 06:30N 52°31' E 004°21'0 0.1
2017-Nov-19 05:58N 52°31' E 004°21'0 0.0
2017-Nov-19 05:28N 52°31' E 004°21'0 0.0
2017-Nov-19 04:55N 52°31' E 004°21'0 0.1
2017-Nov-19 04:28N 52°31' E 004°21'0 0.0
2017-Nov-19 03:58N 52°31' E 004°21'0 0.0
2017-Nov-19 03:28N 52°31' E 004°21'0 0.0
2017-Nov-19 02:55N 52°31' E 004°21'0 0.0
2017-Nov-19 02:25N 52°31' E 004°21'0 0.0
2017-Nov-19 01:55N 52°31' E 004°21'0 0.0
2017-Nov-19 01:19N 52°31' E 004°21'0 0.1
2017-Nov-19 00:58N 52°31' E 004°21'0 0.0
2017-Nov-19 00:25N 52°31' E 004°21'0 0.1
2017-Nov-18 23:58N 52°31' E 004°21'0 0.0
2017-Nov-18 23:28N 52°31' E 004°21'0 0.1
2017-Nov-18 22:58N 52°31' E 004°20'0 0.0
2017-Nov-18 22:28N 52°31' E 004°20'0 0.0
2017-Nov-18 21:58N 52°31' E 004°21'0 0.0
2017-Nov-18 21:28N 52°31' E 004°20'0 0.1
2017-Nov-18 20:52N 52°31' E 004°21'0 0.0
2017-Nov-18 20:28N 52°31' E 004°21'0 0.0
2017-Nov-18 19:55N 52°31' E 004°21'0 0.1
2017-Nov-18 19:28N 52°31' E 004°21'0 0.1
2017-Nov-18 18:58N 52°31' E 004°21'0 0.0
2017-Nov-18 18:22N 52°31' E 004°21'0 0.0
2017-Nov-18 17:58N 52°31' E 004°21'0 0.0
2017-Nov-18 17:25N 52°31' E 004°21'0 0.1
2017-Nov-18 16:58N 52°31' E 004°21'0 0.0
2017-Nov-18 16:25N 52°31' E 004°21'0 0.1
2017-Nov-18 15:58N 52°31' E 004°21'0 0.0
2017-Nov-18 15:28N 52°31' E 004°21'0 0.0
2017-Nov-18 14:59N 52°31' E 004°21'0 0.0
2017-Nov-18 14:30N 52°31' E 004°21'0 0.1
2017-Nov-18 13:57N 52°31' E 004°21'0 0.0
2017-Nov-18 13:30N 52°31' E 004°21'0 0.0
2017-Nov-18 12:56N 52°31' E 004°21'0 0.0
2017-Nov-18 12:22N 52°31' E 004°21'0 0.0
2017-Nov-18 11:58N 52°31' E 004°21'0 0.0
2017-Nov-18 11:25N 52°31' E 004°21'0 0.1
2017-Nov-18 10:55N 52°31' E 004°20'0 0.0
2017-Nov-18 10:25N 52°31' E 004°20'0 0.3
2017-Nov-18 09:59N 52°31' E 004°20'1 1.3
2017-Nov-18 09:24N 52°31' E 004°21'0 0.1
2017-Nov-18 09:00N 52°31' E 004°21'0 0.0
2017-Nov-18 08:30N 52°31' E 004°21'0 0.0
2017-Nov-18 07:54N 52°31' E 004°21'0 0.0
2017-Nov-18 07:30N 52°31' E 004°21'0 0.0
2017-Nov-18 06:57N 52°31' E 004°21'0 0.0
2017-Nov-18 06:27N 52°31' E 004°21'0 0.1
2017-Nov-18 05:57N 52°31' E 004°21'0 0.0
2017-Nov-18 05:30N 52°31' E 004°21'0 0.0
2017-Nov-18 05:00N 52°31' E 004°21'0 0.0
2017-Nov-18 04:30N 52°31' E 004°21'0 0.0
2017-Nov-18 04:00N 52°31' E 004°21'0 0.0
2017-Nov-18 03:30N 52°31' E 004°21'0 0.0
2017-Nov-18 03:00N 52°31' E 004°21'0 0.0
2017-Nov-18 02:30N 52°31' E 004°21'0 0.0
2017-Nov-18 02:00N 52°31' E 004°21'0 0.1
2017-Nov-18 01:30N 52°31' E 004°21'0 0.1
2017-Nov-18 00:57N 52°31' E 004°21'0 0.0
2017-Nov-18 00:30N 52°31' E 004°21'0 0.0
2017-Nov-18 00:00N 52°31' E 004°21'0 0.0
2017-Nov-17 23:30N 52°31' E 004°21'0 0.0
2017-Nov-17 22:57N 52°31' E 004°21'0 0.0
2017-Nov-17 22:30N 52°31' E 004°21'0 0.0
2017-Nov-17 22:00N 52°31' E 004°21'0 0.0
2017-Nov-17 21:30N 52°31' E 004°21'0 0.0
2017-Nov-17 21:00N 52°31' E 004°21'0 0.0
2017-Nov-17 20:30N 52°31' E 004°21'0 0.0
2017-Nov-17 20:00N 52°31' E 004°21'0 0.0
2017-Nov-17 19:30N 52°31' E 004°21'0 0.0
2017-Nov-17 19:00N 52°31' E 004°21'0 0.0
2017-Nov-17 18:30N 52°31' E 004°21'0 0.0
2017-Nov-17 17:54N 52°31' E 004°21'0 0.0
2017-Nov-17 17:30N 52°31' E 004°21'0 0.0
2017-Nov-17 17:00N 52°31' E 004°21'0 0.1
2017-Nov-17 16:30N 52°31' E 004°21'0 0.0
2017-Nov-17 16:00N 52°31' E 004°21'0 0.0
2017-Nov-17 15:30N 52°31' E 004°21'0 0.0
2017-Nov-17 15:00N 52°31' E 004°21'0 0.0
2017-Nov-17 14:30N 52°31' E 004°21'0 0.0
2017-Nov-17 14:00N 52°31' E 004°21'0 0.1
2017-Nov-17 13:27N 52°31' E 004°21'0 0.1
2017-Nov-17 13:00N 52°31' E 004°21'0 0.0
2017-Nov-17 12:30N 52°31' E 004°21'0 0.0
2017-Nov-17 12:00N 52°31' E 004°21'0 0.1
2017-Nov-17 11:30N 52°31' E 004°21'2 3.9
2017-Nov-17 11:00N 52°29' E 004°23'510.9
2017-Nov-17 10:30N 52°28' E 004°32'3 4.3
2017-Nov-17 09:55N 52°28' E 004°36'0 0.1
2017-Nov-17 09:28N 52°28' E 004°36'0 0.0
2017-Nov-17 08:58N 52°28' E 004°36'0 0.0
2017-Nov-17 08:28N 52°28' E 004°36'0 0.0
2017-Nov-17 07:58N 52°28' E 004°36'0 0.0
2017-Nov-17 07:28N 52°28' E 004°36'0 0.0
2017-Nov-17 06:58N 52°28' E 004°36'0 0.0
2017-Nov-17 06:28N 52°28' E 004°36'0 0.0
2017-Nov-17 05:58N 52°28' E 004°36'0 0.0
2017-Nov-17 05:28N 52°28' E 004°36'0 0.0
2017-Nov-17 04:58N 52°28' E 004°36'0 0.0
2017-Nov-17 04:25N 52°28' E 004°36'0 0.0
2017-Nov-17 03:58N 52°28' E 004°36'0 0.0
2017-Nov-17 03:28N 52°28' E 004°36'0 0.0
2017-Nov-17 02:58N 52°28' E 004°36'0 0.0
2017-Nov-17 02:25N 52°28' E 004°36'0 0.0
2017-Nov-17 01:58N 52°28' E 004°36'0 0.0
2017-Nov-17 01:28N 52°28' E 004°36'0 0.0
2017-Nov-17 00:58N 52°28' E 004°36'0 0.0
2017-Nov-17 00:28N 52°28' E 004°36'0 0.0
2017-Nov-16 23:58N 52°28' E 004°36'0 0.0
2017-Nov-16 23:28N 52°28' E 004°36'0 0.0
2017-Nov-16 22:58N 52°28' E 004°36'0 0.0
2017-Nov-16 22:28N 52°28' E 004°36'0 0.0
2017-Nov-16 21:55N 52°28' E 004°36'0 0.0
2017-Nov-16 21:28N 52°28' E 004°36'0 0.0
2017-Nov-16 20:58N 52°28' E 004°36'0 0.0
2017-Nov-16 20:28N 52°28' E 004°36'0 0.0
2017-Nov-16 19:55N 52°28' E 004°36'0 0.0
2017-Nov-16 19:28N 52°28' E 004°36'0 0.0
2017-Nov-16 18:58N 52°28' E 004°36'0 0.0
2017-Nov-16 18:25N 52°28' E 004°36'0 0.0
2017-Nov-16 17:58N 52°28' E 004°36'0 0.0
2017-Nov-16 17:28N 52°28' E 004°36'0 0.0
2017-Nov-16 16:58N 52°28' E 004°36'0 0.0
2017-Nov-16 16:28N 52°28' E 004°36'0 0.0
2017-Nov-16 15:58N 52°28' E 004°36'0 0.0
2017-Nov-16 15:28N 52°28' E 004°36'0 0.0
2017-Nov-16 14:55N 52°28' E 004°36'0 0.0
2017-Nov-16 14:28N 52°28' E 004°36'0 0.0
2017-Nov-16 13:58N 52°28' E 004°36'0 0.0
2017-Nov-16 13:28N 52°28' E 004°36'0 0.0
2017-Nov-16 12:58N 52°28' E 004°36'0 0.0
2017-Nov-16 12:28N 52°28' E 004°36'0 0.0
2017-Nov-16 11:58N 52°28' E 004°36'0 0.0
2017-Nov-16 11:25N 52°28' E 004°36'0 0.0
2017-Nov-16 10:58N 52°28' E 004°36'0 0.0
2017-Nov-16 10:28N 52°28' E 004°36'0 0.0
2017-Nov-16 09:58N 52°28' E 004°36'0 0.0
2017-Nov-16 09:28N 52°28' E 004°36'0 0.0
2017-Nov-16 08:52N 52°28' E 004°36'0 0.0
2017-Nov-16 08:28N 52°28' E 004°36'0 0.0
2017-Nov-16 07:58N 52°28' E 004°36'0 0.0
2017-Nov-16 07:28N 52°28' E 004°36'0 0.0
2017-Nov-16 06:55N 52°28' E 004°36'0 0.0
2017-Nov-16 06:28N 52°28' E 004°36'0 0.0
2017-Nov-16 05:58N 52°28' E 004°36'0 0.0
2017-Nov-16 05:28N 52°28' E 004°36'0 0.0
2017-Nov-16 04:58N 52°28' E 004°36'0 0.0
2017-Nov-16 04:25N 52°28' E 004°36'0 0.0
2017-Nov-16 03:58N 52°28' E 004°36'0 0.0
2017-Nov-16 03:28N 52°28' E 004°36'2 2.1
2017-Nov-16 02:31N 52°28' E 004°33'510.5
2017-Nov-16 02:00N 52°28' E 004°24'5 9.1
2017-Nov-16 01:30N 52°28' E 004°17'4 8.9
2017-Nov-16 01:00N 52°28' E 004°10'0 0.9
2017-Nov-16 00:30N 52°28' E 004°09'0 0.1
2017-Nov-16 00:00N 52°28' E 004°09'0 0.0
2017-Nov-15 23:30N 52°28' E 004°09'0 0.0
2017-Nov-15 23:00N 52°28' E 004°09'0 0.0
2017-Nov-15 22:30N 52°28' E 004°09'0 0.2
2017-Nov-15 22:00N 52°28' E 004°09'0 0.1
2017-Nov-15 21:30N 52°28' E 004°09'0 0.1
2017-Nov-15 21:00N 52°28' E 004°09'0 0.0
2017-Nov-15 20:30N 52°28' E 004°09'0 0.0
2017-Nov-15 20:00N 52°28' E 004°09'0 0.0
2017-Nov-15 19:30N 52°28' E 004°09'0 0.0
2017-Nov-15 19:00N 52°28' E 004°09'0 0.0
2017-Nov-15 18:30N 52°28' E 004°09'0 0.0
2017-Nov-15 18:00N 52°28' E 004°09'0 0.0
2017-Nov-15 17:30N 52°28' E 004°09'0 0.2
2017-Nov-15 17:00N 52°28' E 004°09'0 0.1
2017-Nov-15 16:30N 52°28' E 004°09'0 0.1
2017-Nov-15 16:00N 52°28' E 004°09'0 0.0
2017-Nov-15 15:30N 52°28' E 004°09'0 0.0
2017-Nov-15 15:00N 52°28' E 004°09'0 0.0
2017-Nov-15 14:30N 52°28' E 004°09'0 0.0
2017-Nov-15 14:00N 52°28' E 004°09'0 0.0
2017-Nov-15 13:30N 52°28' E 004°09'0 0.0
2017-Nov-15 13:00N 52°28' E 004°09'0 0.0
2017-Nov-15 12:30N 52°28' E 004°09'0 0.0
2017-Nov-15 12:00N 52°28' E 004°09'0 0.0
2017-Nov-15 11:30N 52°28' E 004°09'0 0.0
2017-Nov-15 11:00N 52°28' E 004°09'0 0.0
2017-Nov-15 10:30N 52°28' E 004°09'0 0.2
2017-Nov-15 10:00N 52°28' E 004°09'0 0.1
2017-Nov-15 09:30N 52°28' E 004°09'0 0.0
2017-Nov-15 09:00N 52°28' E 004°09'0 0.0
2017-Nov-15 08:30N 52°28' E 004°09'0 0.8
2017-Nov-15 08:00N 52°28' E 004°09'4 7.2
2017-Nov-15 07:30N 52°28' E 004°03'4 7.1
2017-Nov-15 07:00N 52°27' E 003°57'3 6.3
2017-Nov-15 06:29N 52°26' E 003°52'3 6.9
2017-Nov-15 06:00N 52°25' E 003°47'63 8.2
2017-Nov-14 22:24N 51°42' E 002°33'14 9.2
2017-Nov-14 20:49N 51°31' E 002°18'4 9.0
2017-Nov-14 20:25N 51°28' E 002°14'410.0
2017-Nov-14 20:00N 51°25' E 002°10'510.6
2017-Nov-14 19:30N 51°20' E 002°08'510.2
2017-Nov-14 19:00N 51°15' E 002°05'510.2
2017-Nov-14 18:31N 51°12' E 001°59'510.1
2017-Nov-14 18:01N 51°09' E 001°52'5 9.6
2017-Nov-14 17:30N 51°06' E 001°46'5 9.2
2017-Nov-14 17:00N 51°03' E 001°41'5 9.0
2017-Nov-14 16:30N 50°60' E 001°36'5 9.1
2017-Nov-14 16:00N 50°56' E 001°31'63 9.7
2017-Nov-14 09:32N 50°21' E 000°09'010.9
2017-Nov-14 09:29N 50°21' E 000°08'1610.7
2017-Nov-14 08:02N 50°17' W 000°15'010.8
2017-Nov-14 08:00N 50°17' W 000°16'3412.0
2017-Nov-14 05:11N 50°07' W 001°06'313.1
2017-Nov-14 04:59N 50°07' W 001°10'612.9
2017-Nov-14 04:30N 50°05' W 001°20'713.0
2017-Nov-14 04:00N 50°03' W 001°29'612.8
2017-Nov-14 03:31N 50°01' W 001°39'612.5
2017-Nov-14 03:00N 49°60' W 001°49'360 7.0
2017-Nov-11 23:48N 44°06' W 003°27'3 8.9
2017-Nov-11 23:26N 44°03' W 003°26'4 9.2
2017-Nov-11 23:00N 43°59' W 003°24'4 9.0
2017-Nov-11 22:30N 43°55' W 003°21'5 9.0
2017-Nov-11 22:00N 43°51' W 003°19'5 9.2
2017-Nov-11 21:30N 43°47' W 003°17'5 9.2
2017-Nov-11 21:00N 43°42' W 003°15'4 9.0
2017-Nov-11 20:30N 43°38' W 003°13'5 9.0
2017-Nov-11 20:00N 43°34' W 003°10'5 9.1
2017-Nov-11 19:30N 43°30' W 003°08'5 9.4
2017-Nov-11 19:00N 43°25' W 003°06'4 8.7
2017-Nov-11 18:31N 43°22' W 003°03'1 1.5
2017-Nov-11 18:00N 43°22' W 003°04'0 0.0
2017-Nov-11 17:30N 43°22' W 003°04'0 0.0
2017-Nov-11 17:00N 43°22' W 003°04'0 0.0
2017-Nov-11 16:30N 43°22' W 003°04'0 0.0
2017-Nov-11 16:00N 43°22' W 003°04'0 0.0
2017-Nov-11 15:30N 43°22' W 003°04'0 0.0
2017-Nov-11 15:00N 43°22' W 003°04'0 0.0
2017-Nov-11 14:30N 43°22' W 003°04'0 0.0
2017-Nov-11 14:00N 43°22' W 003°04'0 0.0
2017-Nov-11 13:30N 43°22' W 003°04'0 0.0
2017-Nov-11 13:00N 43°22' W 003°04'0 0.0
2017-Nov-11 12:30N 43°22' W 003°04'0 0.0
2017-Nov-11 12:00N 43°22' W 003°04'0 0.0
2017-Nov-11 11:30N 43°22' W 003°04'0 0.0
2017-Nov-11 11:00N 43°22' W 003°04'0 0.0
2017-Nov-11 10:30N 43°22' W 003°04'0 0.0
2017-Nov-11 10:00N 43°22' W 003°04'0 0.0
2017-Nov-11 09:30N 43°22' W 003°04'0 0.0
2017-Nov-11 09:00N 43°22' W 003°04'0 0.0
2017-Nov-11 08:30N 43°22' W 003°04'0 0.0
2017-Nov-11 08:00N 43°22' W 003°04'0 0.0
2017-Nov-11 07:30N 43°22' W 003°04'0 0.0
2017-Nov-11 06:59N 43°22' W 003°04'0 0.0
2017-Nov-11 06:29N 43°22' W 003°04'0 0.0
2017-Nov-11 06:00N 43°22' W 003°04'0 0.0
2017-Nov-11 05:30N 43°22' W 003°04'0 0.0
2017-Nov-11 04:59N 43°22' W 003°04'0 0.0
2017-Nov-11 04:29N 43°22' W 003°04'0 0.0
2017-Nov-11 04:00N 43°22' W 003°04'0 0.0
2017-Nov-11 03:30N 43°22' W 003°04'0 0.0
2017-Nov-11 02:59N 43°22' W 003°04'0 0.0
2017-Nov-11 02:29N 43°22' W 003°04'0 0.0
2017-Nov-11 01:59N 43°22' W 003°04'0 0.0
2017-Nov-11 01:30N 43°22' W 003°04'0 0.0
2017-Nov-11 00:59N 43°22' W 003°04'0 0.0
2017-Nov-11 00:29N 43°22' W 003°04'0 0.0
2017-Nov-11 00:00N 43°22' W 003°04'1 1.5
2017-Nov-10 23:31N 43°21' W 003°03'4 7.3
2017-Nov-10 23:01N 43°24' W 003°06'1 2.2
2017-Nov-10 22:30N 43°24' W 003°07'1 1.3
2017-Nov-10 21:58N 43°23' W 003°07'0 0.1
2017-Nov-10 21:28N 43°23' W 003°07'0 0.1
2017-Nov-10 20:58N 43°23' W 003°07'0 0.1
2017-Nov-10 20:28N 43°23' W 003°07'0 0.1
2017-Nov-10 19:58N 43°23' W 003°07'0 0.1
2017-Nov-10 19:28N 43°23' W 003°07'0 0.1
2017-Nov-10 18:58N 43°23' W 003°07'0 0.1
2017-Nov-10 18:28N 43°23' W 003°07'0 0.0
2017-Nov-10 17:58N 43°23' W 003°07'0 0.0
2017-Nov-10 17:31N 43°23' W 003°07'0 0.1
2017-Nov-10 16:58N 43°23' W 003°07'0 0.0
2017-Nov-10 16:28N 43°23' W 003°07'0 0.0
2017-Nov-10 15:58N 43°23' W 003°07'0 0.1
2017-Nov-10 15:28N 43°23' W 003°07'0 0.1
2017-Nov-10 14:58N 43°23' W 003°07'0 0.1
2017-Nov-10 14:28N 43°23' W 003°07'0 0.0
2017-Nov-10 14:00N 43°23' W 003°07'0 0.1
2017-Nov-10 13:31N 43°23' W 003°07'0 0.0
2017-Nov-10 12:58N 43°23' W 003°07'0 0.0
2017-Nov-10 12:27N 43°23' W 003°07'0 0.1
2017-Nov-10 11:58N 43°23' W 003°07'0 0.1
2017-Nov-10 11:28N 43°23' W 003°07'0 0.1
2017-Nov-10 11:01N 43°23' W 003°07'0 0.1
2017-Nov-10 10:25N 43°23' W 003°07'0 0.0
2017-Nov-10 09:58N 43°23' W 003°07'0 0.0
2017-Nov-10 09:28N 43°23' W 003°07'0 0.0
2017-Nov-10 08:58N 43°23' W 003°07'0 0.0
2017-Nov-10 08:28N 43°23' W 003°07'0 0.1
2017-Nov-10 08:01N 43°23' W 003°07'0 0.0
2017-Nov-10 07:27N 43°23' W 003°07'0 0.0
2017-Nov-10 07:00N 43°23' W 003°07'0 0.0
2017-Nov-10 06:30N 43°23' W 003°07'0 0.0
2017-Nov-10 06:01N 43°23' W 003°07'0 0.0
2017-Nov-10 05:31N 43°23' W 003°07'0 0.1
2017-Nov-10 05:01N 43°23' W 003°07'0 0.0
2017-Nov-10 04:30N 43°23' W 003°07'0 0.0
2017-Nov-10 03:58N 43°23' W 003°07'0 0.1
2017-Nov-10 03:30N 43°23' W 003°07'0 0.0
2017-Nov-10 02:57N 43°23' W 003°07'0 0.1
2017-Nov-10 02:28N 43°23' W 003°07'0 0.1
2017-Nov-10 02:00N 43°23' W 003°07'0 0.0
2017-Nov-10 01:31N 43°23' W 003°07'0 0.0
2017-Nov-10 01:00N 43°23' W 003°07'0 0.1
2017-Nov-10 00:30N 43°23' W 003°07'  

Dump ship's entire track history